Terminal Aerodrome Forecast
Issued by NWS Indianapolis, IN

Home | Current Version | Previous Version | Text Only | Print | Product List | Glossary On
Versions: 1 2 3 4 5 6 7 8 9 10 11 12 13 14 15 16 17 18 19 20 21 22 23 24 25 26
908
FTUS43 KIND 280816 AAA
TAFIND
TAF AMD
KIND 280816Z 2808/2912 08006KT P6SM BKN100
     FM281400 14007KT P6SM OVC110
     FM281700 14009KT P6SM VCSH OVC100
     FM290000 13008KT 5SM SHRA BR OVC035
     FM290200 17006KT 5SM SHRA BR OVC015
     FM291100 12004KT 3SM SHRA BR OVC010=

USA.gov is the U.S. government's official web portal to all federal, state and local government web resources and services.